sensor_id;sensor_type;location;lat;lon;timestamp;P1;durP1;ratioP1;P2;durP2;ratioP2
75696;SDS011;64312;44.738;20.612;2023-02-23T00:00:16;30.42;;;14.50;;
75696;SDS011;64312;44.738;20.612;2023-02-23T00:02:48;30.88;;;14.57;;
75696;SDS011;64312;44.738;20.612;2023-02-23T00:05:15;29.33;;;15.23;;
75696;SDS011;64312;44.738;20.612;2023-02-23T00:07:42;27.35;;;13.63;;
75696;SDS011;64312;44.738;20.612;2023-02-23T00:10:12;28.92;;;12.90;;
75696;SDS011;64312;44.738;20.612;2023-02-23T00:12:39;31.85;;;14.68;;
75696;SDS011;64312;44.738;20.612;2023-02-23T00:15:06;31.10;;;14.90;;
75696;SDS011;64312;44.738;20.612;2023-02-23T00:17:32;30.75;;;16.92;;
75696;SDS011;64312;44.738;20.612;2023-02-23T00:20:04;29.38;;;14.00;;
75696;SDS011;64312;44.738;20.612;2023-02-23T00:22:37;26.15;;;14.80;;
75696;SDS011;64312;44.738;20.612;2023-02-23T00:25:05;26.33;;;14.30;;
75696;SDS011;64312;44.738;20.612;2023-02-23T00:27:33;24.30;;;13.55;;
75696;SDS011;64312;44.738;20.612;2023-02-23T00:29:59;21.85;;;10.80;;
75696;SDS011;64312;44.738;20.612;2023-02-23T00:32:25;19.70;;;10.00;;
75696;SDS011;64312;44.738;20.612;2023-02-23T00:34:50;18.23;;;9.45;;
75696;SDS011;64312;44.738;20.612;2023-02-23T00:37:16;15.95;;;8.43;;
75696;SDS011;64312;44.738;20.612;2023-02-23T00:39:42;15.30;;;8.48;;
75696;SDS011;64312;44.738;20.612;2023-02-23T00:42:08;19.88;;;9.88;;
75696;SDS011;64312;44.738;20.612;2023-02-23T00:44:34;16.90;;;10.23;;
75696;SDS011;64312;44.738;20.612;2023-02-23T00:47:05;18.65;;;11.02;;
75696;SDS011;64312;44.738;20.612;2023-02-23T00:49:31;20.58;;;10.98;;
75696;SDS011;64312;44.738;20.612;2023-02-23T00:51:57;27.17;;;12.68;;
75696;SDS011;64312;44.738;20.612;2023-02-23T00:54:23;20.63;;;11.10;;
75696;SDS011;64312;44.738;20.612;2023-02-23T00:56:50;23.88;;;12.35;;
75696;SDS011;64312;44.738;20.612;2023-02-23T00:59:16;25.15;;;12.18;;
75696;SDS011;64312;44.738;20.612;2023-02-23T01:01:43;24.08;;;12.93;;
75696;SDS011;64312;44.738;20.612;2023-02-23T01:04:09;25.63;;;13.43;;
75696;SDS011;64312;44.738;20.612;2023-02-23T01:06:37;28.55;;;13.48;;
75696;SDS011;64312;44.738;20.612;2023-02-23T01:09:09;28.38;;;14.38;;
75696;SDS011;64312;44.738;20.612;2023-02-23T01:11:39;28.40;;;13.57;;
75696;SDS011;64312;44.738;20.612;2023-02-23T01:14:12;26.45;;;12.45;;
75696;SDS011;64312;44.738;20.612;2023-02-23T01:16:39;23.95;;;12.73;;
75696;SDS011;64312;44.738;20.612;2023-02-23T01:19:05;26.58;;;13.63;;
75696;SDS011;64312;44.738;20.612;2023-02-23T01:21:32;24.02;;;12.40;;
75696;SDS011;64312;44.738;20.612;2023-02-23T01:24:01;27.10;;;12.45;;
75696;SDS011;64312;44.738;20.612;2023-02-23T01:26:27;24.45;;;12.02;;
75696;SDS011;64312;44.738;20.612;2023-02-23T01:28:57;21.65;;;10.98;;
75696;SDS011;64312;44.738;20.612;2023-02-23T01:31:25;27.15;;;13.15;;
75696;SDS011;64312;44.738;20.612;2023-02-23T01:33:52;24.70;;;13.38;;
75696;SDS011;64312;44.738;20.612;2023-02-23T01:36:19;26.48;;;12.85;;
75696;SDS011;64312;44.738;20.612;2023-02-23T01:38:45;25.15;;;14.13;;
75696;SDS011;64312;44.738;20.612;2023-02-23T01:41:10;28.10;;;15.05;;
75696;SDS011;64312;44.738;20.612;2023-02-23T01:46:24;26.55;;;13.82;;
75696;SDS011;64312;44.738;20.612;2023-02-23T01:48:50;28.67;;;13.95;;
75696;SDS011;64312;44.738;20.612;2023-02-23T01:51:22;28.50;;;13.73;;
75696;SDS011;64312;44.738;20.612;2023-02-23T01:53:53;26.83;;;12.30;;
75696;SDS011;64312;44.738;20.612;2023-02-23T01:56:25;22.48;;;11.90;;
75696;SDS011;64312;44.738;20.612;2023-02-23T01:58:56;21.77;;;10.88;;
75696;SDS011;64312;44.738;20.612;2023-02-23T02:01:27;26.88;;;12.85;;
75696;SDS011;64312;44.738;20.612;2023-02-23T02:03:55;25.80;;;11.63;;
75696;SDS011;64312;44.738;20.612;2023-02-23T02:06:23;24.33;;;12.52;;
75696;SDS011;64312;44.738;20.612;2023-02-23T02:08:55;24.90;;;12.55;;
75696;SDS011;64312;44.738;20.612;2023-02-23T02:11:24;24.02;;;13.52;;
75696;SDS011;64312;44.738;20.612;2023-02-23T02:17:05;26.48;;;13.32;;
75696;SDS011;64312;44.738;20.612;2023-02-23T02:33:58;22.85;;;11.65;;
75696;SDS011;64312;44.738;20.612;2023-02-23T02:42:38;21.70;;;10.27;;
75696;SDS011;64312;44.738;20.612;2023-02-23T02:54:08;22.63;;;11.32;;
75696;SDS011;64312;44.738;20.612;2023-02-23T02:56:45;20.23;;;10.95;;
75696;SDS011;64312;44.738;20.612;2023-02-23T02:59:18;21.13;;;11.07;;
75696;SDS011;64312;44.738;20.612;2023-02-23T03:02:04;21.55;;;11.55;;
75696;SDS011;64312;44.738;20.612;2023-02-23T03:04:49;20.58;;;11.10;;
75696;SDS011;64312;44.738;20.612;2023-02-23T03:07:35;24.00;;;11.98;;
75696;SDS011;64312;44.738;20.612;2023-02-23T03:16:58;18.98;;;10.90;;
75696;SDS011;64312;44.738;20.612;2023-02-23T03:20:03;17.92;;;9.10;;
75696;SDS011;64312;44.738;20.612;2023-02-23T03:25:57;16.73;;;8.80;;
75696;SDS011;64312;44.738;20.612;2023-02-23T03:31:47;14.23;;;8.10;;
75696;SDS011;64312;44.738;20.612;2023-02-23T03:34:38;14.75;;;8.52;;
75696;SDS011;64312;44.738;20.612;2023-02-23T03:37:36;18.90;;;9.20;;
75696;SDS011;64312;44.738;20.612;2023-02-23T03:40:25;16.20;;;9.60;;
75696;SDS011;64312;44.738;20.612;2023-02-23T03:43:16;17.08;;;10.05;;
75696;SDS011;64312;44.738;20.612;2023-02-23T03:46:06;14.93;;;8.85;;
75696;SDS011;64312;44.738;20.612;2023-02-23T03:48:54;15.50;;;8.07;;
75696;SDS011;64312;44.738;20.612;2023-02-23T03:51:44;16.70;;;8.30;;
75696;SDS011;64312;44.738;20.612;2023-02-23T03:54:33;16.67;;;8.45;;
75696;SDS011;64312;44.738;20.612;2023-02-23T03:57:22;12.85;;;7.45;;
75696;SDS011;64312;44.738;20.612;2023-02-23T04:00:11;19.80;;;9.10;;
75696;SDS011;64312;44.738;20.612;2023-02-23T04:03:01;14.40;;;7.53;;
75696;SDS011;64312;44.738;20.612;2023-02-23T04:05:49;17.35;;;8.38;;
75696;SDS011;64312;44.738;20.612;2023-02-23T04:08:36;15.20;;;8.45;;
75696;SDS011;64312;44.738;20.612;2023-02-23T04:14:16;14.57;;;8.13;;
75696;SDS011;64312;44.738;20.612;2023-02-23T04:16:51;15.32;;;8.93;;
75696;SDS011;64312;44.738;20.612;2023-02-23T04:19:18;13.50;;;8.77;;
75696;SDS011;64312;44.738;20.612;2023-02-23T04:21:44;17.77;;;9.18;;
75696;SDS011;64312;44.738;20.612;2023-02-23T04:24:09;18.70;;;10.82;;
75696;SDS011;64312;44.738;20.612;2023-02-23T04:26:35;20.38;;;11.73;;
75696;SDS011;64312;44.738;20.612;2023-02-23T04:29:01;18.67;;;10.65;;
75696;SDS011;64312;44.738;20.612;2023-02-23T04:31:27;20.10;;;9.98;;
75696;SDS011;64312;44.738;20.612;2023-02-23T04:33:52;17.45;;;9.38;;
75696;SDS011;64312;44.738;20.612;2023-02-23T04:36:19;19.42;;;11.27;;
75696;SDS011;64312;44.738;20.612;2023-02-23T04:38:44;20.65;;;11.00;;
75696;SDS011;64312;44.738;20.612;2023-02-23T04:41:10;23.45;;;12.90;;
75696;SDS011;64312;44.738;20.612;2023-02-23T04:43:35;22.02;;;11.65;;
75696;SDS011;64312;44.738;20.612;2023-02-23T04:46:01;18.80;;;10.05;;
75696;SDS011;64312;44.738;20.612;2023-02-23T04:48:27;24.50;;;11.75;;
75696;SDS011;64312;44.738;20.612;2023-02-23T04:50:53;20.73;;;12.30;;
75696;SDS011;64312;44.738;20.612;2023-02-23T04:53:18;21.73;;;11.25;;
75696;SDS011;64312;44.738;20.612;2023-02-23T04:55:44;21.30;;;11.52;;
75696;SDS011;64312;44.738;20.612;2023-02-23T04:58:09;18.42;;;10.05;;
75696;SDS011;64312;44.738;20.612;2023-02-23T05:00:39;20.65;;;11.85;;
75696;SDS011;64312;44.738;20.612;2023-02-23T05:03:05;18.92;;;10.70;;
75696;SDS011;64312;44.738;20.612;2023-02-23T05:05:31;18.80;;;10.20;;
75696;SDS011;64312;44.738;20.612;2023-02-23T05:07:57;19.20;;;10.68;;
75696;SDS011;64312;44.738;20.612;2023-02-23T05:10:22;18.83;;;10.98;;
75696;SDS011;64312;44.738;20.612;2023-02-23T05:12:48;19.55;;;10.85;;
75696;SDS011;64312;44.738;20.612;2023-02-23T05:15:14;19.13;;;11.35;;
75696;SDS011;64312;44.738;20.612;2023-02-23T05:17:40;22.27;;;12.07;;
75696;SDS011;64312;44.738;20.612;2023-02-23T05:20:07;22.92;;;11.95;;
75696;SDS011;64312;44.738;20.612;2023-02-23T05:22:35;23.58;;;13.60;;
75696;SDS011;64312;44.738;20.612;2023-02-23T05:25:01;26.05;;;13.40;;
75696;SDS011;64312;44.738;20.612;2023-02-23T05:27:28;26.20;;;14.68;;
75696;SDS011;64312;44.738;20.612;2023-02-23T05:29:54;79.55;;;37.88;;
75696;SDS011;64312;44.738;20.612;2023-02-23T05:32:20;94.85;;;43.85;;
75696;SDS011;64312;44.738;20.612;2023-02-23T05:34:46;65.05;;;32.40;;
75696;SDS011;64312;44.738;20.612;2023-02-23T05:37:11;49.38;;;23.45;;
75696;SDS011;64312;44.738;20.612;2023-02-23T05:39:37;39.63;;;19.20;;
75696;SDS011;64312;44.738;20.612;2023-02-23T05:42:03;30.95;;;17.17;;
75696;SDS011;64312;44.738;20.612;2023-02-23T05:44:29;29.27;;;16.17;;
75696;SDS011;64312;44.738;20.612;2023-02-23T05:46:54;33.67;;;17.20;;
75696;SDS011;64312;44.738;20.612;2023-02-23T05:49:20;29.30;;;16.30;;
75696;SDS011;64312;44.738;20.612;2023-02-23T05:51:45;29.88;;;14.93;;
75696;SDS011;64312;44.738;20.612;2023-02-23T05:54:11;26.48;;;14.93;;
75696;SDS011;64312;44.738;20.612;2023-02-23T05:56:38;30.10;;;13.55;;
75696;SDS011;64312;44.738;20.612;2023-02-23T05:59:04;22.73;;;14.40;;
75696;SDS011;64312;44.738;20.612;2023-02-23T06:01:30;26.40;;;15.55;;
75696;SDS011;64312;44.738;20.612;2023-02-23T06:03:56;25.35;;;14.40;;
75696;SDS011;64312;44.738;20.612;2023-02-23T06:06:22;27.27;;;14.80;;
75696;SDS011;64312;44.738;20.612;2023-02-23T06:08:50;29.23;;;15.40;;
75696;SDS011;64312;44.738;20.612;2023-02-23T06:11:16;27.33;;;14.38;;
75696;SDS011;64312;44.738;20.612;2023-02-23T06:13:43;27.65;;;13.82;;
75696;SDS011;64312;44.738;20.612;2023-02-23T06:16:09;25.05;;;13.95;;
75696;SDS011;64312;44.738;20.612;2023-02-23T06:18:35;29.15;;;15.30;;
75696;SDS011;64312;44.738;20.612;2023-02-23T06:21:01;28.80;;;14.55;;
75696;SDS011;64312;44.738;20.612;2023-02-23T06:23:28;25.60;;;13.70;;
75696;SDS011;64312;44.738;20.612;2023-02-23T06:25:54;24.60;;;13.32;;
75696;SDS011;64312;44.738;20.612;2023-02-23T06:28:21;26.33;;;13.07;;
75696;SDS011;64312;44.738;20.612;2023-02-23T06:30:46;27.63;;;13.25;;
75696;SDS011;64312;44.738;20.612;2023-02-23T06:33:12;28.17;;;14.60;;
75696;SDS011;64312;44.738;20.612;2023-02-23T06:35:38;24.80;;;13.13;;
75696;SDS011;64312;44.738;20.612;2023-02-23T06:38:04;28.80;;;13.43;;
75696;SDS011;64312;44.738;20.612;2023-02-23T06:40:30;23.75;;;12.68;;
75696;SDS011;64312;44.738;20.612;2023-02-23T06:42:56;22.92;;;12.18;;
75696;SDS011;64312;44.738;20.612;2023-02-23T06:45:22;25.67;;;11.88;;
75696;SDS011;64312;44.738;20.612;2023-02-23T06:47:48;23.00;;;12.77;;
75696;SDS011;64312;44.738;20.612;2023-02-23T06:50:14;25.38;;;13.20;;
75696;SDS011;64312;44.738;20.612;2023-02-23T06:52:40;26.48;;;13.32;;
75696;SDS011;64312;44.738;20.612;2023-02-23T06:55:06;27.63;;;14.40;;
75696;SDS011;64312;44.738;20.612;2023-02-23T06:57:33;29.63;;;14.07;;
75696;SDS011;64312;44.738;20.612;2023-02-23T06:59:58;31.65;;;15.50;;
75696;SDS011;64312;44.738;20.612;2023-02-23T07:02:26;35.22;;;17.95;;
75696;SDS011;64312;44.738;20.612;2023-02-23T07:04:52;29.77;;;17.05;;
75696;SDS011;64312;44.738;20.612;2023-02-23T07:07:18;24.42;;;14.60;;
75696;SDS011;64312;44.738;20.612;2023-02-23T07:09:43;32.47;;;16.23;;
75696;SDS011;64312;44.738;20.612;2023-02-23T07:12:09;29.95;;;16.52;;
75696;SDS011;64312;44.738;20.612;2023-02-23T07:14:35;33.15;;;18.40;;
75696;SDS011;64312;44.738;20.612;2023-02-23T07:17:02;37.28;;;19.73;;
75696;SDS011;64312;44.738;20.612;2023-02-23T07:19:29;33.78;;;19.50;;
75696;SDS011;64312;44.738;20.612;2023-02-23T07:21:55;42.83;;;23.35;;
75696;SDS011;64312;44.738;20.612;2023-02-23T07:24:21;35.22;;;20.80;;
75696;SDS011;64312;44.738;20.612;2023-02-23T07:26:46;52.83;;;29.40;;
75696;SDS011;64312;44.738;20.612;2023-02-23T07:29:13;59.40;;;31.83;;
75696;SDS011;64312;44.738;20.612;2023-02-23T07:31:39;52.88;;;28.83;;
75696;SDS011;64312;44.738;20.612;2023-02-23T07:34:06;54.65;;;29.88;;
75696;SDS011;64312;44.738;20.612;2023-02-23T07:36:32;57.30;;;31.75;;
75696;SDS011;64312;44.738;20.612;2023-02-23T07:38:57;56.67;;;28.52;;
75696;SDS011;64312;44.738;20.612;2023-02-23T07:41:23;47.63;;;25.80;;
75696;SDS011;64312;44.738;20.612;2023-02-23T07:43:49;44.25;;;25.10;;
75696;SDS011;64312;44.738;20.612;2023-02-23T07:46:15;57.00;;;29.92;;
75696;SDS011;64312;44.738;20.612;2023-02-23T07:48:43;66.28;;;34.22;;
75696;SDS011;64312;44.738;20.612;2023-02-23T07:51:10;57.50;;;31.70;;
75696;SDS011;64312;44.738;20.612;2023-02-23T07:53:37;59.50;;;32.55;;
75696;SDS011;64312;44.738;20.612;2023-02-23T07:56:04;56.13;;;30.63;;
75696;SDS011;64312;44.738;20.612;2023-02-23T07:58:30;60.42;;;31.90;;
75696;SDS011;64312;44.738;20.612;2023-02-23T08:00:56;61.17;;;31.52;;
75696;SDS011;64312;44.738;20.612;2023-02-23T08:03:22;66.78;;;33.45;;
75696;SDS011;64312;44.738;20.612;2023-02-23T08:05:48;72.65;;;36.00;;
75696;SDS011;64312;44.738;20.612;2023-02-23T08:08:14;63.38;;;35.25;;
75696;SDS011;64312;44.738;20.612;2023-02-23T08:10:40;64.75;;;35.92;;
75696;SDS011;64312;44.738;20.612;2023-02-23T08:13:09;71.20;;;37.05;;
75696;SDS011;64312;44.738;20.612;2023-02-23T08:15:35;70.05;;;37.80;;
75696;SDS011;64312;44.738;20.612;2023-02-23T08:18:00;65.85;;;33.85;;
75696;SDS011;64312;44.738;20.612;2023-02-23T08:20:26;71.40;;;39.15;;
75696;SDS011;64312;44.738;20.612;2023-02-23T08:22:52;77.68;;;37.65;;
75696;SDS011;64312;44.738;20.612;2023-02-23T08:25:19;67.55;;;34.88;;
75696;SDS011;64312;44.738;20.612;2023-02-23T08:27:45;64.70;;;34.90;;
75696;SDS011;64312;44.738;20.612;2023-02-23T08:30:12;55.72;;;31.25;;
75696;SDS011;64312;44.738;20.612;2023-02-23T08:32:39;50.95;;;28.63;;
75696;SDS011;64312;44.738;20.612;2023-02-23T08:35:05;46.67;;;25.42;;
75696;SDS011;64312;44.738;20.612;2023-02-23T08:37:32;44.58;;;23.45;;
75696;SDS011;64312;44.738;20.612;2023-02-23T08:39:58;44.47;;;25.02;;
75696;SDS011;64312;44.738;20.612;2023-02-23T08:42:25;40.97;;;22.90;;
75696;SDS011;64312;44.738;20.612;2023-02-23T08:44:52;39.83;;;23.08;;
75696;SDS011;64312;44.738;20.612;2023-02-23T08:47:18;46.92;;;24.15;;
75696;SDS011;64312;44.738;20.612;2023-02-23T08:49:51;30.83;;;18.40;;
75696;SDS011;64312;44.738;20.612;2023-02-23T08:52:19;44.85;;;23.23;;
75696;SDS011;64312;44.738;20.612;2023-02-23T08:54:45;32.58;;;20.00;;
75696;SDS011;64312;44.738;20.612;2023-02-23T08:57:11;35.60;;;19.83;;
75696;SDS011;64312;44.738;20.612;2023-02-23T08:59:37;31.80;;;19.73;;
75696;SDS011;64312;44.738;20.612;2023-02-23T09:02:03;36.08;;;18.90;;
75696;SDS011;64312;44.738;20.612;2023-02-23T09:04:33;32.45;;;19.67;;
75696;SDS011;64312;44.738;20.612;2023-02-23T09:07:02;36.10;;;19.98;;
75696;SDS011;64312;44.738;20.612;2023-02-23T09:09:28;34.90;;;18.90;;
75696;SDS011;64312;44.738;20.612;2023-02-23T09:11:54;31.67;;;17.33;;
75696;SDS011;64312;44.738;20.612;2023-02-23T09:14:19;30.38;;;15.60;;
75696;SDS011;64312;44.738;20.612;2023-02-23T09:16:45;25.67;;;15.23;;
75696;SDS011;64312;44.738;20.612;2023-02-23T09:19:11;24.15;;;14.50;;
75696;SDS011;64312;44.738;20.612;2023-02-23T09:21:37;26.98;;;15.35;;
75696;SDS011;64312;44.738;20.612;2023-02-23T09:24:03;29.02;;;16.50;;
75696;SDS011;64312;44.738;20.612;2023-02-23T09:26:29;24.98;;;13.45;;
75696;SDS011;64312;44.738;20.612;2023-02-23T09:28:57;22.33;;;13.40;;
75696;SDS011;64312;44.738;20.612;2023-02-23T09:31:23;26.92;;;14.60;;
75696;SDS011;64312;44.738;20.612;2023-02-23T09:33:50;25.80;;;15.55;;
75696;SDS011;64312;44.738;20.612;2023-02-23T09:36:20;22.45;;;14.95;;
75696;SDS011;64312;44.738;20.612;2023-02-23T09:38:49;21.88;;;12.15;;
75696;SDS011;64312;44.738;20.612;2023-02-23T09:49:37;17.20;;;9.82;;
75696;SDS011;64312;44.738;20.612;2023-02-23T09:52:05;15.18;;;9.75;;
75696;SDS011;64312;44.738;20.612;2023-02-23T09:54:39;18.13;;;11.05;;
75696;SDS011;64312;44.738;20.612;2023-02-23T09:57:06;15.32;;;8.80;;
75696;SDS011;64312;44.738;20.612;2023-02-23T09:59:38;15.88;;;9.25;;
75696;SDS011;64312;44.738;20.612;2023-02-23T10:04:56;13.18;;;7.75;;
75696;SDS011;64312;44.738;20.612;2023-02-23T10:16:10;16.17;;;10.68;;
75696;SDS011;64312;44.738;20.612;2023-02-23T10:21:20;17.77;;;10.38;;
75696;SDS011;64312;44.738;20.612;2023-02-23T10:24:03;15.27;;;9.30;;
75696;SDS011;64312;44.738;20.612;2023-02-23T10:26:48;13.45;;;8.88;;
75696;SDS011;64312;44.738;20.612;2023-02-23T10:31:53;15.15;;;9.00;;
75696;SDS011;64312;44.738;20.612;2023-02-23T10:34:22;11.02;;;6.68;;
75696;SDS011;64312;44.738;20.612;2023-02-23T10:36:52;11.90;;;6.90;;
75696;SDS011;64312;44.738;20.612;2023-02-23T10:39:28;13.98;;;7.65;;
75696;SDS011;64312;44.738;20.612;2023-02-23T10:41:58;14.95;;;8.63;;
75696;SDS011;64312;44.738;20.612;2023-02-23T10:44:27;12.00;;;6.68;;
75696;SDS011;64312;44.738;20.612;2023-02-23T10:47:00;11.10;;;7.13;;
75696;SDS011;64312;44.738;20.612;2023-02-23T10:52:56;11.23;;;6.53;;
75696;SDS011;64312;44.738;20.612;2023-02-23T10:55:22;7.40;;;4.85;;
75696;SDS011;64312;44.738;20.612;2023-02-23T10:58:07;9.77;;;5.65;;
75696;SDS011;64312;44.738;20.612;2023-02-23T11:00:49;10.57;;;7.25;;
75696;SDS011;64312;44.738;20.612;2023-02-23T11:03:27;13.98;;;7.57;;
75696;SDS011;64312;44.738;20.612;2023-02-23T11:05:58;13.15;;;8.00;;
75696;SDS011;64312;44.738;20.612;2023-02-23T11:08:25;13.38;;;8.88;;
75696;SDS011;64312;44.738;20.612;2023-02-23T11:13:42;10.80;;;6.93;;
75696;SDS011;64312;44.738;20.612;2023-02-23T11:16:14;10.93;;;7.30;;
75696;SDS011;64312;44.738;20.612;2023-02-23T11:18:41;9.77;;;5.97;;
75696;SDS011;64312;44.738;20.612;2023-02-23T11:21:16;9.85;;;6.40;;
75696;SDS011;64312;44.738;20.612;2023-02-23T11:23:48;7.20;;;5.57;;
75696;SDS011;64312;44.738;20.612;2023-02-23T11:26:20;10.20;;;6.82;;
75696;SDS011;64312;44.738;20.612;2023-02-23T11:28:54;10.15;;;7.13;;
75696;SDS011;64312;44.738;20.612;2023-02-23T11:31:27;9.90;;;6.25;;
75696;SDS011;64312;44.738;20.612;2023-02-23T11:33:56;7.22;;;4.75;;
75696;SDS011;64312;44.738;20.612;2023-02-23T11:39:31;8.38;;;5.03;;
75696;SDS011;64312;44.738;20.612;2023-02-23T11:42:11;9.25;;;6.07;;
75696;SDS011;64312;44.738;20.612;2023-02-23T11:44:33;9.77;;;6.05;;
75696;SDS011;64312;44.738;20.612;2023-02-23T11:46:59;10.00;;;7.28;;
75696;SDS011;64312;44.738;20.612;2023-02-23T11:49:31;10.52;;;6.72;;
75696;SDS011;64312;44.738;20.612;2023-02-23T11:52:01;11.23;;;6.77;;
75696;SDS011;64312;44.738;20.612;2023-02-23T11:54:31;10.38;;;6.88;;
75696;SDS011;64312;44.738;20.612;2023-02-23T11:56:58;11.70;;;7.28;;
75696;SDS011;64312;44.738;20.612;2023-02-23T12:02:23;11.38;;;6.40;;
75696;SDS011;64312;44.738;20.612;2023-02-23T12:04:48;11.20;;;6.22;;
75696;SDS011;64312;44.738;20.612;2023-02-23T12:07:26;10.63;;;7.05;;
75696;SDS011;64312;44.738;20.612;2023-02-23T12:10:18;11.15;;;6.35;;
75696;SDS011;64312;44.738;20.612;2023-02-23T12:13:47;14.15;;;8.82;;
75696;SDS011;64312;44.738;20.612;2023-02-23T12:18:12;10.52;;;7.13;;
75696;SDS011;64312;44.738;20.612;2023-02-23T12:20:43;12.73;;;6.95;;
75696;SDS011;64312;44.738;20.612;2023-02-23T12:23:14;10.57;;;6.60;;
75696;SDS011;64312;44.738;20.612;2023-02-23T12:28:25;11.18;;;7.15;;
75696;SDS011;64312;44.738;20.612;2023-02-23T12:31:00;9.15;;;6.50;;
75696;SDS011;64312;44.738;20.612;2023-02-23T12:33:40;9.20;;;5.47;;
75696;SDS011;64312;44.738;20.612;2023-02-23T12:36:14;7.68;;;5.47;;
75696;SDS011;64312;44.738;20.612;2023-02-23T12:39:05;10.23;;;7.00;;
75696;SDS011;64312;44.738;20.612;2023-02-23T12:41:43;10.93;;;6.72;;
75696;SDS011;64312;44.738;20.612;2023-02-23T12:47:20;15.85;;;10.73;;
75696;SDS011;64312;44.738;20.612;2023-02-23T12:49:54;12.43;;;7.20;;
75696;SDS011;64312;44.738;20.612;2023-02-23T12:52:33;7.47;;;5.30;;
75696;SDS011;64312;44.738;20.612;2023-02-23T12:55:04;6.68;;;5.25;;
75696;SDS011;64312;44.738;20.612;2023-02-23T12:58:37;10.18;;;5.95;;
75696;SDS011;64312;44.738;20.612;2023-02-23T13:00:51;8.80;;;5.97;;
75696;SDS011;64312;44.738;20.612;2023-02-23T13:03:41;9.23;;;6.32;;
75696;SDS011;64312;44.738;20.612;2023-02-23T13:09:07;6.60;;;4.63;;
75696;SDS011;64312;44.738;20.612;2023-02-23T13:17:30;9.68;;;6.03;;
75696;SDS011;64312;44.738;20.612;2023-02-23T13:20:35;7.65;;;5.20;;
75696;SDS011;64312;44.738;20.612;2023-02-23T13:28:05;8.05;;;5.28;;
75696;SDS011;64312;44.738;20.612;2023-02-23T13:30:42;8.38;;;5.53;;
75696;SDS011;64312;44.738;20.612;2023-02-23T13:33:19;11.10;;;6.93;;
75696;SDS011;64312;44.738;20.612;2023-02-23T13:35:49;13.68;;;7.45;;
75696;SDS011;64312;44.738;20.612;2023-02-23T13:38:22;13.27;;;8.15;;
75696;SDS011;64312;44.738;20.612;2023-02-23T13:41:05;12.93;;;8.07;;
75696;SDS011;64312;44.738;20.612;2023-02-23T13:43:48;9.23;;;6.22;;
75696;SDS011;64312;44.738;20.612;2023-02-23T13:47:04;10.75;;;6.30;;
75696;SDS011;64312;44.738;20.612;2023-02-23T13:51:56;6.68;;;4.32;;
75696;SDS011;64312;44.738;20.612;2023-02-23T13:54:31;7.25;;;4.80;;
75696;SDS011;64312;44.738;20.612;2023-02-23T13:56:58;10.15;;;4.97;;
75696;SDS011;64312;44.738;20.612;2023-02-23T13:59:36;10.40;;;5.68;;
75696;SDS011;64312;44.738;20.612;2023-02-23T14:02:20;10.18;;;5.93;;
75696;SDS011;64312;44.738;20.612;2023-02-23T14:04:55;13.57;;;8.32;;
75696;SDS011;64312;44.738;20.612;2023-02-23T14:07:27;10.95;;;7.07;;
75696;SDS011;64312;44.738;20.612;2023-02-23T14:09:56;7.35;;;5.75;;
75696;SDS011;64312;44.738;20.612;2023-02-23T14:12:32;8.85;;;5.50;;
75696;SDS011;64312;44.738;20.612;2023-02-23T14:17:56;8.32;;;5.40;;
75696;SDS011;64312;44.738;20.612;2023-02-23T14:44:35;5.93;;;3.63;;
75696;SDS011;64312;44.738;20.612;2023-02-23T14:47:11;5.85;;;3.55;;
75696;SDS011;64312;44.738;20.612;2023-02-23T14:50:12;5.47;;;2.75;;
75696;SDS011;64312;44.738;20.612;2023-02-23T14:52:41;6.15;;;3.17;;
75696;SDS011;64312;44.738;20.612;2023-02-23T14:57:37;5.40;;;3.08;;
75696;SDS011;64312;44.738;20.612;2023-02-23T15:00:27;4.85;;;3.10;;
75696;SDS011;64312;44.738;20.612;2023-02-23T15:05:44;4.88;;;3.20;;
75696;SDS011;64312;44.738;20.612;2023-02-23T15:08:16;5.57;;;3.50;;
75696;SDS011;64312;44.738;20.612;2023-02-23T15:10:45;7.18;;;4.00;;
75696;SDS011;64312;44.738;20.612;2023-02-23T15:13:25;7.13;;;3.95;;
75696;SDS011;64312;44.738;20.612;2023-02-23T15:15:54;8.02;;;4.32;;
75696;SDS011;64312;44.738;20.612;2023-02-23T15:18:23;7.68;;;4.40;;
75696;SDS011;64312;44.738;20.612;2023-02-23T15:20:55;7.38;;;4.47;;
75696;SDS011;64312;44.738;20.612;2023-02-23T15:23:21;8.73;;;5.15;;
75696;SDS011;64312;44.738;20.612;2023-02-23T15:25:47;7.57;;;4.75;;
75696;SDS011;64312;44.738;20.612;2023-02-23T15:28:25;5.85;;;3.95;;
75696;SDS011;64312;44.738;20.612;2023-02-23T15:30:54;8.30;;;3.45;;
75696;SDS011;64312;44.738;20.612;2023-02-23T15:33:24;6.20;;;4.30;;
75696;SDS011;64312;44.738;20.612;2023-02-23T15:36:08;6.72;;;4.00;;
75696;SDS011;64312;44.738;20.612;2023-02-23T15:38:49;6.50;;;4.03;;
75696;SDS011;64312;44.738;20.612;2023-02-23T15:43:47;8.32;;;4.47;;
75696;SDS011;64312;44.738;20.612;2023-02-23T15:46:21;11.40;;;5.85;;
75696;SDS011;64312;44.738;20.612;2023-02-23T15:48:51;12.55;;;6.07;;
75696;SDS011;64312;44.738;20.612;2023-02-23T15:51:22;15.55;;;6.75;;
75696;SDS011;64312;44.738;20.612;2023-02-23T15:53:51;18.88;;;8.85;;
75696;SDS011;64312;44.738;20.612;2023-02-23T15:56:24;19.30;;;9.27;;
75696;SDS011;64312;44.738;20.612;2023-02-23T16:01:21;18.58;;;7.97;;
75696;SDS011;64312;44.738;20.612;2023-02-23T16:03:59;19.85;;;9.27;;
75696;SDS011;64312;44.738;20.612;2023-02-23T16:06:29;15.82;;;8.05;;
75696;SDS011;64312;44.738;20.612;2023-02-23T16:09:00;17.98;;;8.88;;
75696;SDS011;64312;44.738;20.612;2023-02-23T16:11:44;16.25;;;7.60;;
75696;SDS011;64312;44.738;20.612;2023-02-23T16:14:12;23.08;;;9.27;;
75696;SDS011;64312;44.738;20.612;2023-02-23T16:16:41;29.65;;;11.75;;
75696;SDS011;64312;44.738;20.612;2023-02-23T16:19:10;25.75;;;9.80;;
75696;SDS011;64312;44.738;20.612;2023-02-23T16:21:39;25.60;;;10.95;;
75696;SDS011;64312;44.738;20.612;2023-02-23T16:24:12;22.60;;;10.77;;
75696;SDS011;64312;44.738;20.612;2023-02-23T16:26:52;22.65;;;10.50;;
75696;SDS011;64312;44.738;20.612;2023-02-23T16:29:32;27.08;;;12.50;;
75696;SDS011;64312;44.738;20.612;2023-02-23T16:32:18;22.50;;;10.45;;
75696;SDS011;64312;44.738;20.612;2023-02-23T16:34:53;26.83;;;11.68;;
